Putnam Heights, Connecticut
Current Conditions -  °F | °C
As of 6:52 PM on Saturday 25 Oct 2014 (Local Time) from KIJD Reporting Station
Clear Clear  
Wind Chill: 56°   Ceiling: Unl
Heat Index: 56°   Visibility: 10mi
Dew Point: 43°   Wind: 0mph
Humidity: 62%   Direction: NA
Pressure: 29.62"   Gusts: NA
Location:  41.91°N, 71.8739°W
Report Text: KIJD 252252Z AUTO 00000KT 10SM CLR 13/06 A2962 RMK AO2 SLP031 T01330061
Loading
Personal Weather Stations






























Interactive Weather Map
Tropical Storm Tracking
New forecast layout! Learn more

10-Day Weather Forecast

Advertisements
Track Severe Weather on mobile